Time;durP1;ratioP1;P1;durP2;ratioP2;P2;SDS_P1;SDS_P2;PMS_P1;PMS_P2;Temp;Humidity;BMP_temperature;BMP_pressure;BME280_temperature;BME280_humidity;BME280_pressure;Samples;Min_cycle;Max_cycle;Signal;HPM_P1;HPM_P2
2023/06/07 00:00:36;;;;;;;10.67;7.47;;;12.20;99.90;;;;;;5031764;28;20806;-77
2023/06/07 00:03:09;;;;;;;13.27;7.67;;;12.20;99.90;;;;;;5030857;28;20510;-77
2023/06/07 00:05:36;;;;;;;10.50;6.97;;;12.20;99.90;;;;;;5032010;28;20209;-77
2023/06/07 00:08:04;;;;;;;13.97;7.97;;;12.20;99.90;;;;;;5031632;28;20513;-77
2023/06/07 00:10:32;;;;;;;9.00;7.33;;;12.20;99.90;;;;;;5031080;28;20776;-76
2023/06/07 00:12:59;;;;;;;13.57;8.13;;;12.10;99.90;;;;;;5031859;28;20206;-76
2023/06/07 00:15:26;;;;;;;14.30;8.07;;;12.10;99.90;;;;;;5031756;28;20281;-76
2023/06/07 00:17:55;;;;;;;10.90;7.20;;;12.10;99.90;;;;;;5031095;28;20202;-77
2023/06/07 00:20:21;;;;;;;15.93;7.60;;;12.10;99.90;;;;;;5031787;28;20325;-76
2023/06/07 00:22:48;;;;;;;13.13;7.30;;;12.10;99.90;;;;;;5035142;28;20301;-76
2023/06/07 00:25:15;;;;;;;12.37;7.10;;;12.10;99.90;;;;;;5035359;28;20205;-75
2023/06/07 00:27:42;;;;;;;9.23;7.10;;;12.10;99.90;;;;;;5035938;28;20209;-76
2023/06/07 00:30:10;;;;;;;13.87;6.97;;;12.10;99.90;;;;;;5035547;28;20228;-76
2023/06/07 00:32:37;;;;;;;12.73;8.23;;;12.10;99.90;;;;;;5035274;28;20230;-77
2023/06/07 00:35:07;;;;;;;11.27;8.00;;;12.10;99.90;;;;;;5035905;28;20253;-76
2023/06/07 00:37:34;;;;;;;13.77;8.00;;;12.10;99.90;;;;;;5035364;28;20194;-76
2023/06/07 00:40:01;;;;;;;12.30;6.93;;;12.10;99.90;;;;;;5034974;28;20202;-77
2023/06/07 00:42:28;;;;;;;12.77;7.27;;;12.00;99.90;;;;;;5035589;28;20197;-77
2023/06/07 00:44:55;;;;;;;12.43;7.50;;;12.00;99.90;;;;;;5034827;28;20198;-76
2023/06/07 00:47:22;;;;;;;13.10;7.83;;;12.00;99.90;;;;;;5035471;28;20212;-75
2023/06/07 00:49:49;;;;;;;11.90;7.87;;;12.00;99.90;;;;;;5035111;28;20517;-76
2023/06/07 00:52:18;;;;;;;10.47;7.13;;;12.00;99.90;;;;;;5034450;28;20233;-75
2023/06/07 00:54:45;;;;;;;13.53;7.00;;;12.00;99.90;;;;;;5035293;28;20249;-75
2023/06/07 00:57:15;;;;;;;11.13;6.73;;;12.00;99.90;;;;;;5035234;28;20217;-76
2023/06/07 00:59:42;;;;;;;13.40;7.77;;;11.90;99.90;;;;;;5034844;28;20198;-76
2023/06/07 01:02:09;;;;;;;16.07;8.20;;;11.90;99.90;;;;;;5035426;28;20222;-76
2023/06/07 01:04:40;;;;;;;13.47;7.33;;;11.90;99.90;;;;;;5034704;28;20651;-76
2023/06/07 01:07:08;;;;;;;15.00;7.70;;;11.90;99.90;;;;;;5034790;28;20198;-75
2023/06/07 01:09:36;;;;;;;12.70;8.07;;;11.90;99.90;;;;;;5034693;28;20202;-75
2023/06/07 01:12:06;;;;;;;11.17;7.47;;;11.90;99.90;;;;;;5034935;28;20233;-75
2023/06/07 01:14:35;;;;;;;10.70;7.27;;;11.90;99.90;;;;;;5034091;28;20622;-76
2023/06/07 01:17:03;;;;;;;15.57;8.13;;;11.90;99.90;;;;;;5035282;28;20205;-75
2023/06/07 01:19:32;;;;;;;13.70;8.00;;;11.90;99.90;;;;;;5034489;28;20203;-76
2023/06/07 01:22:05;;;;;;;10.97;7.47;;;11.90;99.90;;;;;;5033884;28;20234;-76
2023/06/07 01:24:35;;;;;;;11.13;7.23;;;11.80;99.90;;;;;;5035511;28;20202;-76
2023/06/07 01:27:03;;;;;;;13.03;7.40;;;11.80;99.90;;;;;;5033855;28;20187;-76
2023/06/07 01:29:31;;;;;;;10.97;6.23;;;11.80;99.90;;;;;;5042741;28;20206;-76
2023/06/07 01:32:03;;;;;;;13.30;6.87;;;11.90;99.90;;;;;;5045946;28;20293;-76
2023/06/07 01:34:31;;;;;;;12.90;6.33;;;11.90;99.90;;;;;;5033254;28;20205;-77
2023/06/07 01:36:58;;;;;;;15.33;6.60;;;11.90;99.90;;;;;;5034148;28;20210;-76
2023/06/07 01:39:26;;;;;;;15.47;7.67;;;11.90;99.90;;;;;;5034531;28;20277;-77
2023/06/07 01:41:55;;;;;;;7.43;5.43;;;11.80;99.90;;;;;;5033676;28;20202;-76
2023/06/07 01:44:22;;;;;;;8.77;5.33;;;11.80;99.90;;;;;;5034355;28;20294;-76
2023/06/07 01:46:49;;;;;;;14.30;5.93;;;11.80;99.90;;;;;;5034543;28;20392;-76
2023/06/07 01:49:19;;;;;;;11.97;5.70;;;11.80;99.90;;;;;;5033279;28;20194;-76
2023/06/07 01:51:46;;;;;;;7.13;5.10;;;11.80;99.90;;;;;;5034057;28;20221;-76
2023/06/07 01:54:14;;;;;;;12.87;5.50;;;11.80;99.90;;;;;;5034360;28;20213;-76
2023/06/07 01:56:56;;;;;;;15.60;5.57;;;11.80;99.90;;;;;;5033252;28;20205;-76
2023/06/07 01:59:32;;;;;;;10.43;5.63;;;11.70;99.90;;;;;;5034083;28;20187;-76
2023/06/07 02:02:08;;;;;;;12.57;5.60;;;11.70;99.90;;;;;;5034254;28;20234;-76
2023/06/07 02:04:41;;;;;;;10.23;5.30;;;11.70;99.90;;;;;;5034140;28;20198;-76
2023/06/07 02:07:12;;;;;;;10.13;5.20;;;11.80;99.90;;;;;;5033717;28;20540;-76
2023/06/07 02:09:41;;;;;;;13.93;5.90;;;11.80;99.90;;;;;;5033266;28;20207;-77
2023/06/07 02:12:11;;;;;;;17.40;5.47;;;11.80;99.90;;;;;;5033722;28;20301;-77
2023/06/07 02:14:41;;;;;;;10.57;4.80;;;11.80;99.90;;;;;;5033773;28;20550;-77
2023/06/07 02:17:08;;;;;;;11.63;5.77;;;11.80;99.90;;;;;;5033301;28;20198;-78
2023/06/07 02:19:35;;;;;;;11.67;5.90;;;11.90;99.90;;;;;;5033529;28;20665;-79
2023/06/07 02:22:02;;;;;;;8.77;5.50;;;11.80;99.90;;;;;;5033415;28;20226;-77
2023/06/07 02:24:29;;;;;;;12.83;5.23;;;11.90;99.90;;;;;;5032884;28;20691;-76
2023/06/07 02:26:57;;;;;;;11.07;5.07;;;11.90;99.90;;;;;;5033652;28;20206;-75
2023/06/07 02:29:24;;;;;;;7.90;4.90;;;11.90;99.90;;;;;;5033305;28;20260;-79
2023/06/07 02:31:54;;;;;;;10.60;4.70;;;11.90;99.90;;;;;;5032666;28;20214;-76
2023/06/07 02:34:21;;;;;;;13.23;5.53;;;12.00;99.90;;;;;;5033595;28;20199;-75
2023/06/07 02:36:48;;;;;;;10.93;5.23;;;12.00;99.90;;;;;;5033525;28;20198;-78
2023/06/07 02:39:15;;;;;;;10.83;5.93;;;12.00;99.90;;;;;;5032602;28;20297;-77
2023/06/07 02:41:42;;;;;;;11.03;5.80;;;12.00;99.90;;;;;;5033295;28;20198;-77
2023/06/07 02:44:09;;;;;;;15.17;6.20;;;12.00;99.90;;;;;;5033129;28;20205;-77
2023/06/07 02:46:36;;;;;;;9.83;5.60;;;12.10;99.90;;;;;;5031863;28;20205;-77
2023/06/07 02:49:05;;;;;;;16.47;5.63;;;12.10;99.90;;;;;;5033506;28;20200;-77
2023/06/07 02:51:32;;;;;;;10.80;5.37;;;12.10;99.90;;;;;;5031938;28;20314;-77
2023/06/07 02:54:00;;;;;;;15.37;5.97;;;12.10;99.90;;;;;;5033348;28;20202;-77
2023/06/07 02:56:29;;;;;;;14.33;6.30;;;12.10;99.90;;;;;;5032894;28;20583;-77
2023/06/07 02:58:55;;;;;;;10.67;5.10;;;12.10;99.90;;;;;;5032339;28;20481;-76
2023/06/07 03:01:27;;;;;;;8.33;5.80;;;12.10;99.90;;;;;;5033149;28;20492;-76
2023/06/07 03:03:53;;;;;;;10.47;5.80;;;12.20;99.90;;;;;;5032957;28;20202;-76
2023/06/07 03:06:22;;;;;;;10.97;5.67;;;12.20;99.90;;;;;;5032437;28;20187;-75
2023/06/07 03:08:48;;;;;;;12.17;5.60;;;12.20;99.90;;;;;;5032708;28;20202;-76
2023/06/07 03:11:15;;;;;;;13.83;5.17;;;12.30;99.90;;;;;;5032198;28;20223;-76
2023/06/07 03:13:42;;;;;;;11.27;5.93;;;12.30;99.90;;;;;;5032129;28;20199;-76
2023/06/07 03:16:09;;;;;;;9.33;5.20;;;12.30;99.90;;;;;;5032911;28;20290;-76
2023/06/07 03:18:36;;;;;;;10.40;5.33;;;12.30;99.90;;;;;;5032862;28;20194;-76
2023/06/07 03:21:03;;;;;;;11.23;5.50;;;12.30;99.90;;;;;;5031583;28;20791;-75
2023/06/07 03:23:31;;;;;;;12.33;4.87;;;12.30;99.90;;;;;;5032680;28;20887;-77
2023/06/07 03:25:58;;;;;;;10.57;4.70;;;12.30;99.90;;;;;;5032985;28;20205;-75
2023/06/07 03:28:25;;;;;;;11.93;5.27;;;12.30;99.90;;;;;;5032237;28;20268;-76
2023/06/07 03:30:52;;;;;;;9.97;4.60;;;12.30;99.90;;;;;;5032520;28;20729;-76
2023/06/07 03:33:19;;;;;;;12.13;5.07;;;12.30;99.90;;;;;;5032403;28;20199;-76
2023/06/07 03:35:46;;;;;;;14.77;5.10;;;12.30;99.90;;;;;;5031741;28;20253;-76
2023/06/07 03:38:13;;;;;;;12.60;4.97;;;12.30;99.90;;;;;;5032500;28;20232;-76
2023/06/07 03:40:41;;;;;;;13.90;5.23;;;12.30;99.90;;;;;;5031232;28;20289;-76
2023/06/07 03:43:08;;;;;;;10.77;4.40;;;12.30;99.90;;;;;;5031984;28;20282;-75
2023/06/07 03:45:35;;;;;;;10.27;4.47;;;12.30;99.90;;;;;;5032648;28;20213;-76
2023/06/07 03:48:02;;;;;;;8.13;4.07;;;12.40;99.90;;;;;;5031818;28;20202;-76
2023/06/07 03:50:28;;;;;;;7.20;4.30;;;12.40;99.90;;;;;;5031977;28;20209;-77
2023/06/07 03:52:55;;;;;;;13.17;4.63;;;12.40;99.90;;;;;;5032374;28;20218;-77
2023/06/07 03:55:22;;;;;;;14.27;5.03;;;12.50;99.90;;;;;;5031592;28;20209;-76
2023/06/07 03:57:51;;;;;;;10.63;4.50;;;12.50;99.90;;;;;;5031931;28;20511;-76
2023/06/07 04:00:18;;;;;;;10.53;4.00;;;12.50;99.90;;;;;;5032365;28;20214;-77
2023/06/07 04:02:45;;;;;;;7.40;3.50;;;12.50;99.90;;;;;;5031637;28;20221;-75
2023/06/07 04:05:12;;;;;;;9.83;3.53;;;12.40;99.90;;;;;;5031922;28;20207;-76
2023/06/07 04:07:39;;;;;;;11.47;4.23;;;12.40;99.90;;;;;;5032442;28;20516;-77
2023/06/07 04:10:07;;;;;;;7.57;3.70;;;12.50;99.90;;;;;;5031285;28;20206;-77
2023/06/07 04:12:34;;;;;;;13.23;5.77;;;12.50;99.90;;;;;;5033465;28;20221;-76
2023/06/07 04:15:02;;;;;;;13.07;4.17;;;12.50;99.90;;;;;;5052152;28;20229;-76
2023/06/07 04:17:29;;;;;;;11.13;4.80;;;12.50;99.90;;;;;;5031565;28;20234;-76
2023/06/07 04:19:56;;;;;;;11.37;4.37;;;12.60;99.90;;;;;;5031670;28;20203;-75
2023/06/07 04:22:24;;;;;;;10.53;4.53;;;12.60;99.90;;;;;;5031148;28;20227;-76
2023/06/07 04:24:51;;;;;;;12.10;4.90;;;12.70;99.90;;;;;;5031250;28;20504;-76
2023/06/07 04:27:18;;;;;;;14.37;4.50;;;12.70;99.90;;;;;;5032092;28;20244;-76
2023/06/07 04:29:49;;;;;;;7.23;3.70;;;12.70;99.90;;;;;;5031484;28;20206;-76
2023/06/07 04:32:19;;;;;;;13.30;5.07;;;12.70;99.90;;;;;;5031643;28;20236;-75
2023/06/07 04:34:46;;;;;;;10.10;4.50;;;12.70;99.90;;;;;;5031715;28;20210;-77
2023/06/07 04:37:13;;;;;;;8.83;3.60;;;12.80;99.90;;;;;;5031325;28;20253;-75
2023/06/07 04:39:40;;;;;;;9.57;4.33;;;12.80;99.90;;;;;;5031413;28;20214;-77
2023/06/07 04:42:09;;;;;;;6.20;3.63;;;12.80;99.90;;;;;;5031753;28;20280;-76
2023/06/07 04:44:36;;;;;;;12.20;5.00;;;12.80;99.90;;;;;;5030890;28;20203;-76
2023/06/07 04:47:04;;;;;;;11.17;4.47;;;12.90;99.90;;;;;;5031304;28;20218;-76
2023/06/07 04:49:34;;;;;;;8.93;4.47;;;12.90;99.90;;;;;;5031932;28;20282;-77
2023/06/07 04:52:02;;;;;;;13.30;4.27;;;12.90;99.90;;;;;;5030669;28;20623;-78
2023/06/07 04:54:29;;;;;;;9.93;3.60;;;12.90;99.90;;;;;;5031472;28;20230;-77
2023/06/07 04:56:56;;;;;;;14.03;4.33;;;13.00;99.90;;;;;;5031273;28;20195;-78
2023/06/07 04:59:24;;;;;;;10.93;4.00;;;13.00;99.90;;;;;;5030556;28;20864;-78
2023/06/07 05:01:51;;;;;;;10.73;4.23;;;13.10;99.90;;;;;;5031220;28;20211;-77
2023/06/07 05:04:18;;;;;;;13.43;4.40;;;13.10;99.90;;;;;;5031297;28;20677;-76
2023/06/07 05:06:46;;;;;;;15.97;4.30;;;13.10;99.90;;;;;;5031094;28;20195;-77
2023/06/07 05:09:13;;;;;;;9.37;3.77;;;13.10;99.90;;;;;;5033361;28;20622;-76
2023/06/07 05:11:40;;;;;;;10.93;3.27;;;13.10;99.90;;;;;;5034748;28;20225;-77
2023/06/07 05:14:07;;;;;;;9.00;3.73;;;13.20;99.90;;;;;;5034248;28;20599;-76
2023/06/07 05:16:34;;;;;;;10.37;4.00;;;13.20;99.90;;;;;;5034891;28;20198;-78
2023/06/07 05:19:04;;;;;;;9.73;3.83;;;13.20;99.90;;;;;;5034103;28;20213;-77
2023/06/07 05:21:31;;;;;;;12.17;4.50;;;13.20;99.90;;;;;;5034501;28;20260;-77
2023/06/07 05:23:59;;;;;;;11.87;4.17;;;13.30;99.90;;;;;;5046755;28;20827;-77
2023/06/07 05:26:26;;;;;;;11.77;4.23;;;13.30;99.90;;;;;;5053502;28;20205;-78
2023/06/07 05:28:53;;;;;;;9.80;4.10;;;13.30;99.90;;;;;;5036265;28;20207;-78
2023/06/07 05:31:20;;;;;;;8.53;3.50;;;13.30;99.90;;;;;;5034706;28;20202;-76
2023/06/07 05:33:46;;;;;;;10.50;3.80;;;13.40;99.90;;;;;;5034103;28;20241;-76
2023/06/07 05:36:13;;;;;;;13.27;3.67;;;13.40;99.90;;;;;;5034380;28;20550;-78
2023/06/07 05:38:40;;;;;;;13.73;4.73;;;13.50;99.90;;;;;;5034327;28;20222;-77
2023/06/07 05:41:09;;;;;;;10.13;3.37;;;13.50;99.90;;;;;;5033758;28;20205;-78
2023/06/07 05:43:37;;;;;;;8.67;3.57;;;13.50;99.90;;;;;;5034410;28;20495;-77
2023/06/07 05:46:04;;;;;;;7.10;4.03;;;13.60;99.90;;;;;;5034382;28;20657;-77
2023/06/07 05:48:30;;;;;;;9.87;3.67;;;13.60;99.90;;;;;;5033030;28;20207;-77
2023/06/07 05:50:58;;;;;;;10.83;3.93;;;13.60;99.90;;;;;;5034126;28;20536;-76
2023/06/07 05:53:25;;;;;;;11.67;4.40;;;13.70;99.90;;;;;;5033665;28;20253;-76
2023/06/07 05:55:53;;;;;;;11.80;4.23;;;13.70;99.90;;;;;;5033426;28;20205;-77
2023/06/07 05:58:22;;;;;;;12.50;4.20;;;13.80;99.90;;;;;;5033926;28;20195;-76
2023/06/07 06:00:49;;;;;;;10.33;4.33;;;13.80;99.90;;;;;;5034229;28;20237;-76
2023/06/07 06:03:18;;;;;;;13.60;4.00;;;13.90;99.90;;;;;;5033566;28;20570;-76
2023/06/07 06:05:44;;;;;;;9.93;3.80;;;13.90;99.90;;;;;;5034210;28;20206;-73
2023/06/07 06:08:12;;;;;;;10.73;4.17;;;13.90;99.90;;;;;;5033684;28;20199;-73
2023/06/07 06:10:39;;;;;;;10.43;4.03;;;14.00;99.90;;;;;;5034128;28;20591;-73
2023/06/07 06:13:06;;;;;;;8.13;3.67;;;14.10;99.90;;;;;;5034078;28;20222;-74
2023/06/07 06:15:34;;;;;;;9.90;4.10;;;14.10;99.90;;;;;;5033634;28;20199;-74
2023/06/07 06:18:01;;;;;;;15.27;4.30;;;14.20;99.90;;;;;;5033597;28;20670;-74
2023/06/07 06:20:28;;;;;;;13.13;4.10;;;14.30;99.90;;;;;;5032877;28;20234;-77
2023/06/07 06:22:55;;;;;;;9.87;3.60;;;14.40;99.90;;;;;;5033031;28;20226;-76
2023/06/07 06:25:22;;;;;;;9.63;3.17;;;14.30;99.90;;;;;;5033472;28;20289;-76
2023/06/07 06:27:49;;;;;;;11.60;3.73;;;14.40;99.90;;;;;;5033266;28;20202;-75
2023/06/07 06:30:16;;;;;;;12.40;3.93;;;14.50;99.90;;;;;;5033188;28;20202;-76
2023/06/07 06:32:44;;;;;;;9.73;3.90;;;14.50;99.90;;;;;;5033527;28;20803;-77
2023/06/07 06:35:11;;;;;;;10.63;4.07;;;14.50;99.90;;;;;;5033174;28;20863;-76
2023/06/07 06:37:38;;;;;;;10.10;3.83;;;14.40;99.90;;;;;;5033323;28;20195;-75
2023/06/07 06:40:08;;;;;;;9.47;3.67;;;14.40;99.90;;;;;;5033989;28;20496;-77
2023/06/07 06:42:35;;;;;;;8.97;3.60;;;14.50;99.90;;;;;;5033858;28;20199;-76
2023/06/07 06:45:02;;;;;;;7.17;3.47;;;14.50;99.90;;;;;;5018236;28;20202;-76
2023/06/07 06:47:33;;;;;;;8.47;4.07;;;14.60;99.90;;;;;;5051792;28;20225;-76
2023/06/07 06:50:02;;;;;;;11.98;3.95;;;14.70;99.90;;;;;;5040141;28;20212;-74
2023/06/07 06:52:29;;;;;;;10.23;3.60;;;14.80;99.90;;;;;;5052147;28;20253;-75
2023/06/07 06:54:56;;;;;;;12.50;4.17;;;14.90;99.90;;;;;;5046940;28;20225;-75
2023/06/07 06:57:25;;;;;;;10.27;3.95;;;14.90;99.90;;;;;;5065851;28;20284;-77
2023/06/07 06:59:52;;;;;;;7.22;3.65;;;15.00;99.90;;;;;;5047234;28;20202;-75
2023/06/07 07:02:20;;;;;;;13.35;4.95;;;15.10;99.90;;;;;;5050800;28;20206;-75
2023/06/07 07:04:47;;;;;;;10.50;3.93;;;15.10;99.90;;;;;;5052504;28;20213;-76
2023/06/07 07:07:15;;;;;;;12.13;3.83;;;15.10;99.90;;;;;;5051760;28;20205;-75
2023/06/07 07:09:43;;;;;;;11.57;3.80;;;15.30;99.90;;;;;;5046328;28;20588;-77
2023/06/07 07:12:13;;;;;;;8.52;3.97;;;15.30;99.90;;;;;;5046923;28;20280;-77
2023/06/07 07:14:40;;;;;;;13.35;4.78;;;15.40;99.90;;;;;;5039454;28;20644;-75
2023/06/07 07:17:10;;;;;;;10.55;3.20;;;15.60;99.90;;;;;;5035899;28;20232;-76
2023/06/07 07:19:36;;;;;;;7.28;3.50;;;15.70;99.90;;;;;;5051379;28;20681;-77
2023/06/07 07:22:07;;;;;;;9.45;4.30;;;15.80;99.90;;;;;;5051129;28;20670;-77
2023/06/07 07:24:39;;;;;;;14.45;4.65;;;15.90;99.90;;;;;;5052673;28;20206;-76
2023/06/07 07:27:07;;;;;;;7.30;3.50;;;16.00;99.90;;;;;;5052504;28;20205;-77
2023/06/07 07:29:34;;;;;;;12.45;3.85;;;16.00;99.90;;;;;;5048654;28;20260;-77
2023/06/07 07:32:01;;;;;;;8.18;3.70;;;16.10;99.90;;;;;;5051889;28;20221;-76
2023/06/07 07:34:28;;;;;;;7.85;3.60;;;16.20;99.90;;;;;;5048206;28;20205;-77
2023/06/07 07:36:57;;;;;;;9.70;3.88;;;16.20;99.90;;;;;;5043315;28;20233;-77
2023/06/07 07:39:26;;;;;;;9.73;4.70;;;16.40;99.90;;;;;;5050013;28;20206;-76
2023/06/07 07:41:54;;;;;;;8.88;3.53;;;16.50;99.90;;;;;;5051315;28;20212;-76
2023/06/07 07:44:20;;;;;;;8.63;3.85;;;16.70;99.90;;;;;;5051060;28;20285;-74
2023/06/07 07:46:47;;;;;;;7.90;3.40;;;17.00;99.90;;;;;;5043366;28;20522;-76
2023/06/07 07:49:14;;;;;;;7.47;3.35;;;17.00;99.90;;;;;;5045946;28;20202;-75
2023/06/07 07:51:41;;;;;;;12.43;4.10;;;17.00;99.90;;;;;;5042374;28;20202;-77
2023/06/07 07:54:08;;;;;;;10.80;3.67;;;17.30;99.90;;;;;;5038693;28;20297;-76
2023/06/07 07:56:38;;;;;;;11.80;4.07;;;17.50;99.90;;;;;;5044342;28;20248;-76
2023/06/07 07:59:06;;;;;;;12.45;4.03;;;17.90;99.90;;;;;;5051120;28;20193;-76
2023/06/07 08:01:34;;;;;;;10.57;3.42;;;18.10;99.90;;;;;;5048307;28;20226;-76
2023/06/07 08:04:01;;;;;;;8.95;3.60;;;18.10;99.90;;;;;;5050182;28;20274;-76
2023/06/07 08:06:27;;;;;;;9.60;3.88;;;18.50;99.90;;;;;;5050031;28;20201;-76
2023/06/07 08:08:55;;;;;;;8.02;3.22;;;18.80;99.90;;;;;;5048402;28;20297;-77
2023/06/07 08:11:22;;;;;;;12.43;3.60;;;19.10;99.90;;;;;;5049278;28;20210;-76
2023/06/07 08:13:48;;;;;;;8.60;4.35;;;19.30;99.90;;;;;;5048960;28;20225;-75
2023/06/07 08:16:17;;;;;;;5.75;3.10;;;19.70;99.90;;;;;;5049996;28;20201;-80
2023/06/07 08:18:49;;;;;;;6.25;2.85;;;19.90;99.90;;;;;;5051265;28;20202;-78
2023/06/07 08:21:16;;;;;;;7.00;2.85;;;20.10;99.90;;;;;;5038147;28;20641;-76
2023/06/07 08:23:44;;;;;;;7.28;3.30;;;20.20;99.90;;;;;;5047788;28;20202;-78
2023/06/07 08:26:11;;;;;;;5.75;3.10;;;20.00;99.90;;;;;;5047992;28;20233;-77
2023/06/07 08:28:38;;;;;;;9.23;2.50;;;20.40;99.90;;;;;;5047549;28;20204;-77
2023/06/07 08:31:05;;;;;;;7.88;3.22;;;20.70;99.90;;;;;;5047603;28;20570;-76
2023/06/07 08:33:33;;;;;;;6.20;2.83;;;20.60;99.90;;;;;;5043078;28;20213;-78
2023/06/07 08:36:00;;;;;;;12.13;3.63;;;20.80;99.90;;;;;;5048731;28;20313;-76
2023/06/07 08:38:27;;;;;;;12.93;3.67;;;20.60;99.90;;;;;;5040437;28;20263;-76
2023/06/07 08:40:55;;;;;;;7.53;3.20;;;20.50;99.90;;;;;;5039339;28;20400;-76
2023/06/07 08:43:22;;;;;;;7.82;3.05;;;20.70;99.90;;;;;;5047592;28;20190;-77
2023/06/07 08:45:49;;;;;;;7.88;2.90;;;20.90;99.90;;;;;;5052505;28;20212;-77
2023/06/07 08:48:18;;;;;;;6.38;2.92;;;20.80;99.90;;;;;;5051445;28;20305;-76
2023/06/07 08:50:47;;;;;;;6.97;2.70;;;20.70;99.90;;;;;;5048431;28;20577;-76
2023/06/07 08:53:15;;;;;;;9.10;3.58;;;20.90;99.90;;;;;;5051304;28;20248;-77
2023/06/07 08:55:43;;;;;;;9.57;3.78;;;20.90;99.90;;;;;;5052237;28;20205;-77
2023/06/07 08:58:11;;;;;;;6.95;3.35;;;20.90;99.90;;;;;;5052745;28;20206;-78
2023/06/07 09:00:38;;;;;;;7.45;3.13;;;21.00;99.90;;;;;;5053385;28;20230;-77
2023/06/07 09:03:06;;;;;;;7.45;2.92;;;21.20;99.90;;;;;;5041856;28;20280;-78
2023/06/07 09:05:33;;;;;;;5.93;2.85;;;21.30;99.90;;;;;;5052573;28;20209;-77
2023/06/07 09:08:02;;;;;;;7.20;2.97;;;21.30;99.90;;;;;;5043014;28;20204;-76
2023/06/07 09:10:29;;;;;;;8.57;3.25;;;21.30;99.90;;;;;;5048164;28;20233;-77
2023/06/07 09:12:56;;;;;;;9.88;3.40;;;21.40;99.90;;;;;;5049235;28;20309;-77
2023/06/07 09:15:23;;;;;;;6.07;3.00;;;21.40;99.90;;;;;;5051947;28;20612;-77
2023/06/07 09:17:52;;;;;;;9.35;3.20;;;21.60;99.90;;;;;;5053301;28;20206;-77
2023/06/07 09:20:23;;;;;;;9.85;3.58;;;21.90;99.90;;;;;;5051338;28;20250;-78
2023/06/07 09:23:01;;;;;;;8.57;3.80;;;22.00;99.90;;;;;;5046554;28;20290;-77
2023/06/07 09:25:30;;;;;;;7.35;3.72;;;21.90;99.90;;;;;;5052890;28;20210;-76
2023/06/07 09:27:57;;;;;;;7.70;3.38;;;22.00;99.90;;;;;;5052435;28;20614;-76
2023/06/07 09:30:25;;;;;;;8.05;3.10;;;21.80;99.90;;;;;;5049181;28;20198;-77
2023/06/07 09:32:52;;;;;;;5.47;3.08;;;21.80;99.90;;;;;;5046569;28;20229;-77
2023/06/07 09:35:19;;;;;;;9.15;3.72;;;22.10;99.90;;;;;;5051021;28;20216;-77
2023/06/07 09:37:47;;;;;;;8.75;3.95;;;22.50;99.90;;;;;;5049207;28;20212;-77
2023/06/07 09:40:17;;;;;;;6.85;3.90;;;22.80;99.90;;;;;;5053029;28;20208;-76
2023/06/07 09:42:44;;;;;;;6.72;3.42;;;23.00;99.90;;;;;;5046875;28;20645;-76
2023/06/07 09:45:12;;;;;;;10.80;4.20;;;22.90;99.90;;;;;;5052829;28;20213;-76
2023/06/07 09:47:41;;;;;;;8.70;3.72;;;22.60;99.90;;;;;;5053120;28;20215;-76
2023/06/07 09:50:09;;;;;;;5.97;3.28;;;22.60;99.90;;;;;;5046441;28;20670;-76
2023/06/07 09:52:36;;;;;;;6.88;4.10;;;22.90;99.90;;;;;;5048860;28;20202;-78
2023/06/07 09:55:06;;;;;;;7.57;4.00;;;22.80;99.90;;;;;;5051442;28;20225;-77
2023/06/07 09:57:36;;;;;;;9.77;4.40;;;23.00;99.90;;;;;;5052008;28;20591;-80
2023/06/07 10:00:13;;;;;;;9.20;3.70;;;22.70;99.90;;;;;;5051708;28;20232;-77
2023/06/07 10:02:41;;;;;;;5.43;3.50;;;22.70;99.90;;;;;;5048615;28;20209;-77
2023/06/07 10:05:08;;;;;;;6.65;3.60;;;22.80;99.90;;;;;;5041794;28;20203;-78
2023/06/07 10:07:38;;;;;;;6.45;3.30;;;22.90;99.90;;;;;;5049018;28;20198;-76
2023/06/07 10:10:08;;;;;;;6.78;3.70;;;23.10;99.90;;;;;;5050200;28;20287;-80
2023/06/07 10:12:40;;;;;;;9.75;3.58;;;23.10;99.90;;;;;;5052806;28;20609;-78
2023/06/07 10:15:10;;;;;;;6.93;3.95;;;23.20;99.90;;;;;;5048980;28;20237;-76
2023/06/07 10:17:45;;;;;;;7.32;3.72;;;23.10;99.90;;;;;;5052522;28;20586;-82
2023/06/07 10:20:16;;;;;;;8.77;3.45;;;23.20;99.90;;;;;;5052124;28;20315;-77
2023/06/07 10:22:45;;;;;;;7.38;3.58;;;23.30;99.90;;;;;;5047327;28;20289;-77
2023/06/07 10:25:16;;;;;;;8.93;4.18;;;23.10;99.90;;;;;;5048846;28;20206;-78
2023/06/07 10:27:53;;;;;;;7.10;3.65;;;23.10;99.90;;;;;;5052514;28;20292;-77
2023/06/07 10:30:22;;;;;;;9.32;4.25;;;23.00;99.90;;;;;;5051983;28;20292;-76
2023/06/07 10:32:51;;;;;;;6.20;3.80;;;22.80;99.90;;;;;;5044826;28;20507;-77
2023/06/07 10:35:20;;;;;;;9.55;4.40;;;22.70;99.90;;;;;;5047766;28;20256;-76
2023/06/07 10:37:53;;;;;;;7.85;3.95;;;22.70;99.90;;;;;;5049099;28;20205;-76
2023/06/07 10:40:21;;;;;;;8.90;3.72;;;22.60;99.90;;;;;;5048880;28;20622;-75
2023/06/07 10:42:50;;;;;;;8.45;3.95;;;22.90;99.90;;;;;;5057142;28;20202;-76
2023/06/07 10:45:19;;;;;;;7.57;3.83;;;23.10;99.90;;;;;;5050107;28;20678;-78
2023/06/07 10:47:48;;;;;;;10.48;3.95;;;23.10;99.90;;;;;;5048659;28;20299;-77
2023/06/07 10:50:45;;;;;;;9.23;3.90;;;23.30;99.90;;;;;;5040428;28;20198;-77
2023/06/07 10:53:12;;;;;;;10.35;4.38;;;23.50;99.90;;;;;;5037163;28;20234;-77
2023/06/07 10:55:39;;;;;;;9.57;4.00;;;23.20;99.90;;;;;;5051534;28;20204;-77
2023/06/07 10:58:26;;;;;;;6.20;3.78;;;23.30;99.90;;;;;;5049867;28;20194;-76
2023/06/07 11:00:54;;;;;;;9.88;4.50;;;23.40;99.90;;;;;;5050690;28;20226;-77
2023/06/07 11:03:43;;;;;;;6.10;3.45;;;23.70;99.90;;;;;;5048310;28;20285;-78
2023/06/07 11:06:11;;;;;;;6.97;4.70;;;23.80;99.90;;;;;;5033492;28;20511;-77
2023/06/07 11:08:39;;;;;;;7.25;4.35;;;23.70;99.90;;;;;;5047323;28;20221;-76
2023/06/07 11:11:53;;;;;;;8.63;4.57;;;23.70;99.90;;;;;;5047935;28;20206;-77
2023/06/07 11:14:21;;;;;;;7.20;4.03;;;23.80;99.90;;;;;;5046578;28;20548;-79
2023/06/07 11:16:48;;;;;;;12.82;5.18;;;24.00;99.90;;;;;;5051703;28;20209;-77
2023/06/07 11:19:18;;;;;;;9.20;4.25;;;23.80;99.90;;;;;;5046778;28;20210;-77
2023/06/07 11:22:07;;;;;;;9.30;4.13;;;24.00;99.90;;;;;;5051145;28;20257;-77
2023/06/07 11:24:36;;;;;;;6.82;3.60;;;24.10;99.90;;;;;;5045395;28;20205;-77
2023/06/07 11:27:04;;;;;;;5.93;3.42;;;24.00;99.90;;;;;;5050446;28;20583;-76
2023/06/07 11:29:32;;;;;;;10.10;4.13;;;24.10;99.90;;;;;;5046442;28;20294;-78
2023/06/07 11:32:01;;;;;;;8.80;3.92;;;23.90;99.90;;;;;;5050153;28;20608;-75
2023/06/07 11:34:30;;;;;;;12.57;5.15;;;24.10;99.90;;;;;;5049542;28;20213;-76
2023/06/07 11:37:16;;;;;;;7.72;3.85;;;23.90;99.90;;;;;;5051660;28;20202;-80
2023/06/07 11:39:45;;;;;;;7.88;3.67;;;23.90;99.90;;;;;;5047763;28;20288;-77
2023/06/07 11:42:12;;;;;;;9.02;4.15;;;24.10;99.90;;;;;;5050608;28;20213;-76
2023/06/07 11:44:40;;;;;;;9.40;4.32;;;24.50;99.90;;;;;;5051798;28;20229;-77
2023/06/07 11:47:08;;;;;;;5.13;3.65;;;24.50;99.90;;;;;;5051151;28;20213;-77
2023/06/07 11:49:38;;;;;;;13.88;4.10;;;24.30;99.90;;;;;;5044111;28;20238;-78
2023/06/07 11:52:06;;;;;;;9.70;4.35;;;24.50;99.90;;;;;;5048037;28;20583;-77
2023/06/07 11:54:34;;;;;;;10.68;4.20;;;24.50;99.90;;;;;;5050606;28;20279;-77
2023/06/07 11:57:02;;;;;;;11.70;4.65;;;24.50;99.90;;;;;;5050233;28;20209;-77
2023/06/07 11:59:29;;;;;;;10.93;4.05;;;24.30;99.90;;;;;;5047858;28;20229;-77
2023/06/07 12:01:58;;;;;;;9.48;4.60;;;24.50;99.90;;;;;;5041004;28;20228;-78
2023/06/07 12:04:25;;;;;;;7.75;3.67;;;24.50;99.90;;;;;;5049485;28;20590;-77
2023/06/07 12:06:52;;;;;;;7.28;3.80;;;24.60;99.90;;;;;;5051555;28;20194;-78
2023/06/07 12:09:19;;;;;;;8.40;4.10;;;24.70;99.90;;;;;;5051469;28;20229;-77
2023/06/07 12:11:47;;;;;;;5.60;3.95;;;24.60;99.90;;;;;;5041207;28;20206;-77
2023/06/07 12:14:30;;;;;;;11.02;4.45;;;24.90;99.90;;;;;;5050160;28;20228;-76
2023/06/07 12:17:00;;;;;;;8.95;3.75;;;24.80;99.90;;;;;;5047603;28;20693;-77
2023/06/07 12:19:27;;;;;;;6.13;3.72;;;25.00;99.90;;;;;;5051634;28;20288;-77
2023/06/07 12:21:56;;;;;;;10.52;4.20;;;25.00;99.90;;;;;;5049310;28;20662;-76
2023/06/07 12:24:23;;;;;;;7.45;3.83;;;24.90;99.90;;;;;;5046998;28;20263;-77
2023/06/07 12:26:50;;;;;;;8.98;4.50;;;24.70;99.90;;;;;;5049433;28;20289;-78
2023/06/07 12:29:17;;;;;;;8.43;4.22;;;24.50;99.90;;;;;;5054785;28;20232;-76
2023/06/07 12:31:44;;;;;;;9.60;4.50;;;24.60;99.90;;;;;;5055164;28;20593;-77
2023/06/07 12:34:12;;;;;;;7.03;4.20;;;24.50;99.90;;;;;;5053911;28;20312;-78
2023/06/07 12:36:39;;;;;;;10.05;4.38;;;24.50;99.90;;;;;;5052341;28;20309;-77
2023/06/07 12:39:08;;;;;;;6.60;4.00;;;24.70;99.90;;;;;;5051122;28;20670;-77
2023/06/07 12:41:36;;;;;;;5.57;3.25;;;24.80;99.90;;;;;;5053461;28;20209;-76
2023/06/07 12:44:04;;;;;;;9.55;3.78;;;24.80;99.90;;;;;;5054600;28;20223;-78
2023/06/07 12:46:31;;;;;;;10.70;4.22;;;25.00;99.90;;;;;;5046740;28;20208;-77